Time;durP1;ratioP1;P1;durP2;ratioP2;P2;SDS_P1;SDS_P2;PMS_P1;PMS_P2;Temp;Humidity;BMP_temperature;BMP_pressure;BME280_temperature;BME280_humidity;BME280_pressure;Samples;Min_cycle;Max_cycle;Signal;HPM_P1;HPM_P2
2023/01/02 00:01:35;;;;;;;;;;;9.20;99.90;;;;;;5002311;28;19968;-84
2023/01/02 00:04:02;;;;;;;;;;;9.20;99.90;;;;;;5010465;28;20020;-85
2023/01/02 00:06:44;;;;;;;;;;;9.20;99.90;;;;;;5013134;28;19957;-85
2023/01/02 00:09:20;;;;;;;;;;;9.10;99.90;;;;;;5010226;28;19938;-84
2023/01/02 00:11:57;;;;;;;;;;;9.10;99.90;;;;;;5011969;28;20439;-85
2023/01/02 00:14:34;;;;;;;;;;;9.10;99.90;;;;;;5009024;28;19948;-85
2023/01/02 00:17:10;;;;;;;;;;;9.10;99.90;;;;;;5009072;28;19936;-85
2023/01/02 00:19:37;;;;;;;;;;;9.10;99.90;;;;;;5005511;28;20028;-84
2023/01/02 00:22:04;;;;;;;;;;;9.10;99.90;;;;;;5011808;23;19943;-77
2023/01/02 00:24:33;;;;;;;;;;;9.10;99.90;;;;;;4997532;28;20040;-77
2023/01/02 00:27:00;;;;;;;;;;;9.10;99.90;;;;;;4985743;28;20289;-77
2023/01/02 00:29:27;;;;;;;;;;;9.00;99.90;;;;;;4971312;28;19960;-78
2023/01/02 00:31:54;;;;;;;;;;;9.10;99.90;;;;;;4960023;28;20001;-78
2023/01/02 00:34:25;;;;;;;;;;;9.00;99.90;;;;;;4972939;28;19929;-78
2023/01/02 00:36:58;;;;;;;;;;;9.00;99.90;;;;;;4985367;28;20400;-78
2023/01/02 00:39:25;;;;;;;;;;;9.00;99.90;;;;;;4993197;28;19930;-78
2023/01/02 00:41:52;;;;;;;;;;;9.00;99.90;;;;;;4989997;28;20522;-77
2023/01/02 00:44:20;;;;;;;;;;;9.00;99.90;;;;;;4995778;28;19980;-78
2023/01/02 00:46:49;;;;;;;;;;;9.00;99.90;;;;;;4986457;28;20404;-78
2023/01/02 00:49:17;;;;;;;;;;;9.00;99.90;;;;;;4992822;28;19929;-78
2023/01/02 00:51:45;;;;;;;;;;;9.00;99.90;;;;;;4983600;28;19933;-78
2023/01/02 00:54:12;;;;;;;;;;;9.00;99.90;;;;;;4993393;28;20004;-78
2023/01/02 00:56:39;;;;;;;;;;;9.00;99.90;;;;;;4993894;28;19933;-78
2023/01/02 00:59:08;;;;;;;;;;;9.00;99.90;;;;;;4976364;28;19965;-78
2023/01/02 01:01:40;;;;;;;;;;;9.00;99.90;;;;;;4974640;28;20422;-78
2023/01/02 01:04:06;;;;;;;;;;;9.00;99.90;;;;;;4978208;28;19926;-78
2023/01/02 01:06:36;;;;;;;;;;;8.90;99.90;;;;;;4978643;28;20408;-78
2023/01/02 01:09:06;;;;;;;;;;;8.90;99.90;;;;;;4986779;28;19957;-78
2023/01/02 01:11:34;;;;;;;;;;;8.90;99.90;;;;;;4994180;28;19934;-78
2023/01/02 01:14:03;;;;;;;;;;;8.90;99.90;;;;;;4979473;28;20273;-78
2023/01/02 01:16:32;;;;;;;;;;;8.90;99.90;;;;;;4990152;28;19932;-77
2023/01/02 01:18:59;;;;;;;;;;;8.90;99.90;;;;;;4991152;28;19934;-78
2023/01/02 01:21:31;;;;;;;;;;;8.90;99.90;;;;;;4993462;28;19930;-77
2023/01/02 01:23:58;;;;;;;;;;;8.90;99.90;;;;;;4989626;28;19929;-78
2023/01/02 01:26:26;;;;;;;;;;;8.90;99.90;;;;;;4987101;28;19934;-78
2023/01/02 01:28:56;;;;;;;;;;;8.80;99.90;;;;;;4977780;28;19932;-78
2023/01/02 01:31:28;;;;;;;;;;;8.80;99.90;;;;;;4985429;28;20024;-78
2023/01/02 01:33:56;;;;;;;;;;;8.80;99.90;;;;;;4988939;28;19957;-78
2023/01/02 01:36:26;;;;;;;;;;;8.80;99.90;;;;;;4976386;28;19977;-78
2023/01/02 01:38:56;;;;;;;;;;;8.80;99.90;;;;;;4994467;28;19930;-78
2023/01/02 01:41:27;;;;;;;;;;;8.80;99.90;;;;;;4971903;28;19926;-77
2023/01/02 01:43:56;;;;;;;;;;;8.80;99.90;;;;;;4991873;28;19926;-78
2023/01/02 01:46:26;;;;;;;;;;;8.80;99.90;;;;;;4991205;28;19940;-78
2023/01/02 01:48:59;;;;;;;;;;;8.80;99.90;;;;;;4991181;28;20495;-78
2023/01/02 01:51:26;;;;;;;;;;;8.80;99.90;;;;;;4973242;28;19926;-78
2023/01/02 01:54:01;;;;;;;;;;;8.80;99.90;;;;;;4978981;28;20457;-78
2023/01/02 01:56:29;;;;;;;;;;;8.70;99.90;;;;;;4996133;28;19926;-78
2023/01/02 01:58:56;;;;;;;;;;;8.70;99.90;;;;;;4975818;28;19984;-78
2023/01/02 02:01:23;;;;;;;;;;;8.70;99.90;;;;;;4975947;28;19933;-78
2023/01/02 02:03:53;;;;;;;;;;;8.70;99.90;;;;;;4977869;28;20284;-78
2023/01/02 02:06:22;;;;;;;;;;;8.70;99.90;;;;;;4993090;28;20000;-78
2023/01/02 02:08:54;;;;;;;;;;;8.70;99.90;;;;;;4972546;28;19925;-78
2023/01/02 02:11:21;;;;;;;;;;;8.70;99.90;;;;;;4990206;28;19926;-78
2023/01/02 02:13:50;;;;;;;;;;;8.70;99.90;;;;;;4975485;28;19948;-78
2023/01/02 02:16:27;;;;;;;;;;;8.70;99.90;;;;;;4971471;28;19932;-78
2023/01/02 02:18:59;;;;;;;;;;;8.70;99.90;;;;;;4983831;28;19926;-77
2023/01/02 02:21:32;;;;;;;;;;;8.70;99.90;;;;;;4979889;28;19926;-77
2023/01/02 02:24:12;;;;;;;;;;;8.70;99.90;;;;;;4992771;28;20356;-78
2023/01/02 02:26:58;;;;;;;;;;;8.70;99.90;;;;;;4970298;28;19933;-77
2023/01/02 02:29:40;;;;;;;;;;;8.60;99.90;;;;;;4990060;28;19926;-78
2023/01/02 02:32:13;;;;;;;;;;;8.60;99.90;;;;;;4974008;28;19933;-78
2023/01/02 02:34:46;;;;;;;;;;;8.60;99.90;;;;;;4990440;28;20399;-78
2023/01/02 02:37:17;;;;;;;;;;;8.60;99.90;;;;;;4977315;28;20406;-77
2023/01/02 02:39:52;;;;;;;;;;;8.60;99.90;;;;;;4988988;28;19926;-77
2023/01/02 02:42:30;;;;;;;;;;;8.60;99.90;;;;;;4985720;28;19957;-78
2023/01/02 02:44:58;;;;;;;;;;;8.60;99.90;;;;;;4987330;28;19933;-77
2023/01/02 02:47:30;;;;;;;;;;;8.60;99.90;;;;;;4993322;28;19930;-78
2023/01/02 02:50:01;;;;;;;;;;;8.60;99.90;;;;;;4973394;28;20008;-77
2023/01/02 02:52:32;;;;;;;;;;;8.60;99.90;;;;;;4977968;28;19931;-77
2023/01/02 02:55:02;;;;;;;;;;;8.60;99.90;;;;;;4996312;28;19948;-77
2023/01/02 02:57:31;;;;;;;;;;;8.60;99.90;;;;;;4985091;28;19973;-78
2023/01/02 02:59:58;;;;;;;;;;;8.60;99.90;;;;;;4969846;28;20051;-77
2023/01/02 03:02:28;;;;;;;;;;;8.50;99.90;;;;;;4972273;28;20068;-76
2023/01/02 03:05:03;;;;;;;;;;;8.50;99.90;;;;;;4996603;28;19929;-78
2023/01/02 03:07:37;;;;;;;;;;;8.50;99.90;;;;;;4972332;28;19933;-77
2023/01/02 03:10:11;;;;;;;;;;;8.50;99.90;;;;;;4987712;28;19942;-77
2023/01/02 03:12:43;;;;;;;;;;;8.50;99.90;;;;;;4991233;28;19960;-77
2023/01/02 03:15:15;;;;;;;;;;;8.50;99.90;;;;;;4985425;28;19957;-77
2023/01/02 03:17:46;;;;;;;;;;;8.50;99.90;;;;;;4986394;28;19925;-77
2023/01/02 03:20:17;;;;;;;;;;;8.50;99.90;;;;;;4974282;28;19996;-77
2023/01/02 03:22:46;;;;;;;;;;;8.50;99.90;;;;;;4991849;28;19954;-77
2023/01/02 03:25:14;;;;;;;;;;;8.50;99.90;;;;;;4989984;28;19936;-77
2023/01/02 03:27:43;;;;;;;;;;;8.50;99.90;;;;;;4983328;28;19932;-77
2023/01/02 03:30:16;;;;;;;;;;;8.50;99.90;;;;;;4995405;28;19926;-77
2023/01/02 03:32:46;;;;;;;;;;;8.50;99.90;;;;;;4970572;28;20340;-78
2023/01/02 03:35:17;;;;;;;;;;;8.40;99.90;;;;;;4973610;28;19933;-77
2023/01/02 03:37:45;;;;;;;;;;;8.50;99.90;;;;;;4980923;28;20016;-77
2023/01/02 03:40:14;;;;;;;;;;;8.40;99.90;;;;;;4989935;28;19930;-77
2023/01/02 03:42:44;;;;;;;;;;;8.40;99.90;;;;;;4990263;28;19940;-77
2023/01/02 03:45:14;;;;;;;;;;;8.40;99.90;;;;;;4988619;28;19925;-77
2023/01/02 03:47:46;;;;;;;;;;;8.40;99.90;;;;;;4988878;28;19980;-77
2023/01/02 03:50:18;;;;;;;;;;;8.40;99.90;;;;;;4991088;28;19938;-78
2023/01/02 03:52:47;;;;;;;;;;;8.40;99.90;;;;;;4982933;28;19926;-77
2023/01/02 03:55:22;;;;;;;;;;;8.40;99.90;;;;;;4986213;28;20017;-77
2023/01/02 03:57:52;;;;;;;;;;;8.40;99.90;;;;;;4990721;28;20395;-78
2023/01/02 04:00:19;;;;;;;;;;;8.40;99.90;;;;;;4983159;28;19973;-77
2023/01/02 04:02:55;;;;;;;;;;;8.40;99.90;;;;;;4993934;28;19984;-78
2023/01/02 04:05:27;;;;;;;;;;;8.40;99.90;;;;;;4976391;28;19933;-77
2023/01/02 04:07:59;;;;;;;;;;;8.40;99.90;;;;;;4990805;28;19941;-77
2023/01/02 04:10:27;;;;;;;;;;;8.40;99.90;;;;;;4985978;28;19926;-77
2023/01/02 04:12:57;;;;;;;;;;;8.30;99.90;;;;;;4971957;28;20344;-77
2023/01/02 04:15:27;;;;;;;;;;;8.30;99.90;;;;;;5000277;28;19925;-77
2023/01/02 04:17:58;;;;;;;;;;;8.30;99.90;;;;;;4980355;28;19933;-78
2023/01/02 04:20:35;;;;;;;;;;;8.30;99.90;;;;;;4992446;28;20307;-77
2023/01/02 04:23:07;;;;;;;;;;;8.40;99.90;;;;;;4973024;28;20020;-78
2023/01/02 04:25:39;;;;;;;;;;;8.30;99.90;;;;;;5002175;28;20346;-78
2023/01/02 04:28:09;;;;;;;;;;;8.30;99.90;;;;;;4978897;28;20439;-77
2023/01/02 04:30:39;;;;;;;;;;;8.30;99.90;;;;;;4992580;28;20829;-77
2023/01/02 04:33:10;;;;;;;;;;;8.30;99.90;;;;;;4993010;28;19945;-77
2023/01/02 04:35:43;;;;;;;;;;;8.30;99.90;;;;;;4997625;28;19933;-78
2023/01/02 04:38:12;;;;;;;;;;;8.30;99.90;;;;;;4991763;28;19929;-77
2023/01/02 04:40:45;;;;;;;;;;;8.30;99.90;;;;;;4992947;28;20024;-77
2023/01/02 04:43:16;;;;;;;;;;;8.30;99.90;;;;;;4987594;28;20021;-77
2023/01/02 04:45:49;;;;;;;;;;;8.30;99.90;;;;;;4987018;28;19930;-77
2023/01/02 04:48:26;;;;;;;;;;;8.20;99.90;;;;;;4972683;28;20042;-77
2023/01/02 04:50:58;;;;;;;;;;;8.20;99.90;;;;;;4989837;28;19929;-77
2023/01/02 04:53:25;;;;;;;;;;;8.20;99.90;;;;;;4996936;28;20299;-77
2023/01/02 04:55:55;;;;;;;;;;;8.20;99.90;;;;;;4993870;28;19926;-79
2023/01/02 04:58:25;;;;;;;;;;;8.20;99.90;;;;;;4986394;28;19925;-78
2023/01/02 05:00:55;;;;;;;;;;;8.20;99.90;;;;;;4979447;28;19947;-78
2023/01/02 05:03:28;;;;;;;;;;;8.20;99.90;;;;;;4974612;28;19925;-78
2023/01/02 05:06:01;;;;;;;;;;;8.20;99.90;;;;;;4991197;28;19926;-78
2023/01/02 05:08:28;;;;;;;;;;;8.20;99.90;;;;;;4984361;28;19933;-77
2023/01/02 05:10:55;;;;;;;;;;;8.20;99.90;;;;;;4974478;28;19929;-77
2023/01/02 05:13:22;;;;;;;;;;;8.20;99.90;;;;;;4979313;28;19926;-77
2023/01/02 05:15:54;;;;;;;;;;;8.20;99.90;;;;;;4975987;28;20125;-77
2023/01/02 05:18:21;;;;;;;;;;;8.20;99.90;;;;;;4973410;28;20396;-77
2023/01/02 05:20:48;;;;;;;;;;;8.20;99.90;;;;;;4992414;28;20029;-77
2023/01/02 05:26:09;;;;;;;;;;;8.10;99.90;;;;;;4959559;28;19933;-77
2023/01/02 05:28:36;;;;;;;;;;;8.10;99.90;;;;;;4993673;28;19980;-77
2023/01/02 05:31:03;;;;;;;;;;;8.10;99.90;;;;;;4993016;28;19988;-77
2023/01/02 05:33:37;;;;;;;;;;;8.10;99.90;;;;;;4986131;28;20357;-77
2023/01/02 05:36:05;;;;;;;;;;;8.10;99.90;;;;;;4975002;28;19925;-77
2023/01/02 05:38:42;;;;;;;;;;;8.10;99.90;;;;;;4992842;28;20244;-78
2023/01/02 05:41:18;;;;;;;;;;;8.10;99.90;;;;;;4988557;28;19925;-77
2023/01/02 05:43:47;;;;;;;;;;;8.10;99.90;;;;;;4985783;28;19932;-77
2023/01/02 05:46:21;;;;;;;;;;;8.10;99.90;;;;;;4990742;28;19957;-78
2023/01/02 05:48:48;;;;;;;;;;;8.10;99.90;;;;;;4993061;28;19926;-77
2023/01/02 05:51:16;;;;;;;;;;;8.10;99.90;;;;;;4984630;28;20388;-78
2023/01/02 05:53:44;;;;;;;;;;;8.10;99.90;;;;;;4991575;28;20355;-77
2023/01/02 05:56:12;;;;;;;;;;;8.10;99.90;;;;;;4990597;28;20309;-77
2023/01/02 05:58:41;;;;;;;;;;;8.10;99.90;;;;;;4972764;28;19927;-77
2023/01/02 06:01:12;;;;;;;;;;;8.00;99.90;;;;;;4981634;28;19949;-77
2023/01/02 06:03:45;;;;;;;;;;;8.00;99.90;;;;;;4991445;28;22223;-77
2023/01/02 06:06:12;;;;;;;;;;;8.10;99.90;;;;;;4992941;28;19948;-77
2023/01/02 06:08:39;;;;;;;;;;;8.10;99.90;;;;;;4990699;28;20008;-77
2023/01/02 06:11:08;;;;;;;;;;;8.10;99.90;;;;;;4989676;28;20650;-77
2023/01/02 06:13:37;;;;;;;;;;;8.00;99.90;;;;;;4986002;28;20023;-77
2023/01/02 06:16:07;;;;;;;;;;;8.00;99.90;;;;;;4989517;28;19934;-77
2023/01/02 06:18:35;;;;;;;;;;;8.00;99.90;;;;;;4990507;28;20360;-77
2023/01/02 06:21:03;;;;;;;;;;;8.00;99.90;;;;;;4969167;28;20015;-77
2023/01/02 06:23:30;;;;;;;;;;;8.00;99.90;;;;;;4980310;28;19984;-78
2023/01/02 06:26:02;;;;;;;;;;;8.00;99.90;;;;;;4991413;28;19930;-77
2023/01/02 06:28:30;;;;;;;;;;;8.00;99.90;;;;;;4990063;28;19967;-77
2023/01/02 06:31:02;;;;;;;;;;;8.00;99.90;;;;;;4983867;28;20028;-77
2023/01/02 06:33:29;;;;;;;;;;;8.00;99.90;;;;;;4987546;28;19926;-78
2023/01/02 06:35:59;;;;;;;;;;;8.00;99.90;;;;;;4990464;28;19926;-77
2023/01/02 06:38:26;;;;;;;;;;;7.90;99.90;;;;;;4993987;28;19926;-76
2023/01/02 06:40:53;;;;;;;;;;;7.90;99.90;;;;;;4992234;28;19980;-77
2023/01/02 06:43:20;;;;;;;;;;;7.90;99.90;;;;;;4976241;28;19933;-77
2023/01/02 06:45:48;;;;;;;;;;;7.90;99.90;;;;;;4988008;28;20024;-77
2023/01/02 06:48:15;;;;;;;;;;;7.90;99.90;;;;;;4991217;28;19933;-77
2023/01/02 06:50:42;;;;;;;;;;;7.90;99.90;;;;;;4992884;28;20025;-77
2023/01/02 06:53:09;;;;;;;;;;;7.90;99.90;;;;;;4974109;28;19926;-77
2023/01/02 06:55:38;;;;;;;;;;;7.90;99.90;;;;;;4970622;28;19929;-77
2023/01/02 06:58:07;;;;;;;;;;;7.90;99.90;;;;;;4990782;28;19926;-77
2023/01/02 07:00:35;;;;;;;;;;;7.90;99.90;;;;;;4989673;28;20005;-77
2023/01/02 07:03:05;;;;;;;;;;;7.90;99.90;;;;;;4982685;28;20004;-77
2023/01/02 07:05:32;;;;;;;;;;;7.90;99.90;;;;;;4991598;28;19926;-77
2023/01/02 07:07:59;;;;;;;;;;;7.90;99.90;;;;;;4970594;28;19988;-78
2023/01/02 07:10:28;;;;;;;;;;;7.90;99.90;;;;;;4970900;28;19938;-78
2023/01/02 07:12:55;;;;;;;;;;;7.90;99.90;;;;;;4964699;28;19980;-77
2023/01/02 07:15:22;;;;;;;;;;;7.90;99.90;;;;;;4983049;28;19965;-77
2023/01/02 07:17:49;;;;;;;;;;;7.90;99.90;;;;;;4974500;28;19925;-77
2023/01/02 07:20:17;;;;;;;;;;;7.90;99.90;;;;;;4984840;28;19949;-77
2023/01/02 07:22:49;;;;;;;;;;;7.80;99.90;;;;;;4990646;28;19933;-77
2023/01/02 07:25:16;;;;;;;;;;;7.80;99.90;;;;;;4971205;28;20849;-78
2023/01/02 07:27:43;;;;;;;;;;;7.80;99.90;;;;;;4980534;28;19969;-77
2023/01/02 07:30:12;;;;;;;;;;;7.80;99.90;;;;;;4980406;28;20397;-78
2023/01/02 07:32:39;;;;;;;;;;;7.80;99.90;;;;;;4974582;28;19932;-77
2023/01/02 07:35:06;;;;;;;;;;;7.80;99.90;;;;;;4987150;28;20391;-78
2023/01/02 07:37:35;;;;;;;;;;;7.80;99.90;;;;;;4982474;28;20277;-77
2023/01/02 07:40:02;;;;;;;;;;;7.80;99.90;;;;;;4968901;28;19949;-77
2023/01/02 07:42:31;;;;;;;;;;;7.80;99.90;;;;;;4980014;28;20316;-78
2023/01/02 07:44:59;;;;;;;;;;;7.80;99.90;;;;;;4988030;28;19956;-77
2023/01/02 07:47:26;;;;;;;;;;;7.80;99.90;;;;;;4987799;28;20407;-77
2023/01/02 07:49:53;;;;;;;;;;;7.80;99.90;;;;;;4987958;28;20442;-77
2023/01/02 07:52:20;;;;;;;;;;;7.80;99.90;;;;;;4974370;28;19926;-78
2023/01/02 07:54:48;;;;;;;;;;;7.80;99.90;;;;;;4989801;28;20037;-77
2023/01/02 07:57:18;;;;;;;;;;;7.80;99.90;;;;;;4989011;28;20013;-78
2023/01/02 07:59:45;;;;;;;;;;;7.70;99.90;;;;;;4967740;28;19934;-77
2023/01/02 08:02:15;;;;;;;;;;;7.80;99.90;;;;;;4983767;28;19925;-78
2023/01/02 08:04:41;;;;;;;;;;;7.80;99.90;;;;;;4990619;28;20383;-77
2023/01/02 08:07:10;;;;;;;;;;;7.80;99.90;;;;;;4992994;28;19980;-77
2023/01/02 08:12:40;;;;;;;;;;;7.70;99.90;;;;;;4991413;28;19926;-77
2023/01/02 08:15:16;;;;;;;;;;;7.70;99.90;;;;;;4987836;28;19930;-77
2023/01/02 08:17:43;;;;;;;;;;;7.70;99.90;;;;;;4985584;28;19929;-77
2023/01/02 08:20:16;;;;;;;;;;;7.70;99.90;;;;;;4991349;28;19933;-77
2023/01/02 08:22:45;;;;;;;;;;;7.80;99.90;;;;;;4987843;28;20016;-78
2023/01/02 08:25:12;;;;;;;;;;;7.80;99.90;;;;;;4991184;28;19953;-78
2023/01/02 08:27:44;;;;;;;;;;;7.80;99.90;;;;;;4978768;28;20439;-77
2023/01/02 08:30:17;;;;;;;;;;;7.80;99.90;;;;;;4986693;28;19937;-78
2023/01/02 08:32:44;;;;;;;;;;;7.80;99.90;;;;;;4976353;28;19992;-78
2023/01/02 08:35:10;;;;;;;;;;;7.80;99.90;;;;;;4985705;28;20377;-77
2023/01/02 08:37:38;;;;;;;;;;;7.80;99.90;;;;;;4990806;28;19925;-78
2023/01/02 08:40:05;;;;;;;;;;;7.80;99.90;;;;;;4991434;28;19976;-77
2023/01/02 08:42:32;;;;;;;;;;;7.80;99.90;;;;;;4981367;28;20479;-78
2023/01/02 08:45:02;;;;;;;;;;;7.80;99.90;;;;;;4992056;28;20032;-77
2023/01/02 08:47:29;;;;;;;;;;;7.80;99.90;;;;;;4976978;28;19955;-78
2023/01/02 08:49:56;;;;;;;;;;;7.80;99.90;;;;;;4993679;28;19926;-78
2023/01/02 08:52:23;;;;;;;;;;;7.80;99.90;;;;;;4978141;28;19968;-77
2023/01/02 08:54:49;;;;;;;;;;;7.80;99.90;;;;;;4990199;28;19926;-78
2023/01/02 08:57:16;;;;;;;;;;;7.80;99.90;;;;;;4980191;28;19926;-78
2023/01/02 08:59:43;;;;;;;;;;;7.80;99.90;;;;;;4992485;28;19926;-78
2023/01/02 09:02:14;;;;;;;;;;;7.80;99.90;;;;;;4987684;28;19933;-78
2023/01/02 09:04:41;;;;;;;;;;;7.80;99.90;;;;;;4992660;28;19960;-78
2023/01/02 09:07:08;;;;;;;;;;;7.80;99.90;;;;;;4979806;28;19933;-78
2023/01/02 09:09:35;;;;;;;;;;;7.80;99.90;;;;;;4986059;28;19933;-78
2023/01/02 09:12:02;;;;;;;;;;;7.80;99.90;;;;;;4989668;28;19933;-78
2023/01/02 09:14:29;;;;;;;;;;;7.80;99.90;;;;;;4988345;28;19929;-77
2023/01/02 09:16:56;;;;;;;;;;;7.80;99.90;;;;;;4976632;28;19925;-78
2023/01/02 09:19:25;;;;;;;;;;;7.80;99.90;;;;;;4993707;28;20473;-78
2023/01/02 09:21:51;;;;;;;;;;;7.80;99.90;;;;;;4990545;28;19926;-78
2023/01/02 09:24:20;;;;;;;;;;;7.80;99.90;;;;;;4990066;28;19926;-78
2023/01/02 09:26:47;;;;;;;;;;;7.80;99.90;;;;;;4979662;28;19930;-78
2023/01/02 09:29:14;;;;;;;;;;;7.80;99.90;;;;;;4971185;28;19933;-78
2023/01/02 09:31:41;;;;;;;;;;;7.80;99.90;;;;;;4991087;28;19926;-77
2023/01/02 09:34:09;;;;;;;;;;;7.80;99.90;;;;;;4987253;28;19945;-78
2023/01/02 09:36:38;;;;;;;;;;;7.80;99.90;;;;;;4991889;28;19930;-78
2023/01/02 09:39:05;;;;;;;;;;;7.80;99.90;;;;;;4994024;28;20379;-78
2023/01/02 09:41:34;;;;;;;;;;;7.80;99.90;;;;;;4984349;28;19926;-77
2023/01/02 09:44:02;;;;;;;;;;;7.80;99.90;;;;;;4990741;28;19940;-78
2023/01/02 09:46:32;;;;;;;;;;;7.80;99.90;;;;;;4974014;28;19932;-77
2023/01/02 09:49:00;;;;;;;;;;;7.80;99.90;;;;;;4994424;28;19930;-78
2023/01/02 09:51:27;;;;;;;;;;;7.80;99.90;;;;;;4988859;28;19988;-78
2023/01/02 09:53:55;;;;;;;;;;;7.80;99.90;;;;;;4977543;28;20415;-78
2023/01/02 09:56:24;;;;;;;;;;;7.80;99.90;;;;;;4977185;28;19930;-78
2023/01/02 09:58:55;;;;;;;;;;;7.80;99.90;;;;;;4972578;28;20086;-78
2023/01/02 10:01:26;;;;;;;;;;;7.80;99.90;;;;;;4992076;28;19926;-78
2023/01/02 10:03:59;;;;;;;;;;;7.80;99.90;;;;;;4993662;28;20556;-77
2023/01/02 10:06:29;;;;;;;;;;;7.80;99.90;;;;;;4996120;28;19937;-78
2023/01/02 10:09:02;;;;;;;;;;;7.80;99.90;;;;;;4989345;28;20041;-78
2023/01/02 10:11:36;;;;;;;;;;;7.80;99.90;;;;;;4973653;28;19957;-78
2023/01/02 10:14:06;;;;;;;;;;;7.80;99.90;;;;;;4974778;28;19933;-78
2023/01/02 10:16:37;;;;;;;;;;;7.80;99.90;;;;;;4992777;28;19934;-78
2023/01/02 10:19:07;;;;;;;;;;;7.90;99.90;;;;;;4977924;28;20388;-77
2023/01/02 10:21:35;;;;;;;;;;;7.90;99.90;;;;;;5000057;28;19926;-78
2023/01/02 10:24:06;;;;;;;;;;;7.90;99.90;;;;;;4998241;28;19972;-78
2023/01/02 10:26:35;;;;;;;;;;;7.90;99.90;;;;;;4985683;28;19925;-77
2023/01/02 10:29:05;;;;;;;;;;;7.90;99.90;;;;;;4991138;28;20021;-77
2023/01/02 10:31:37;;;;;;;;;;;7.90;99.90;;;;;;4989421;28;20299;-78
2023/01/02 10:34:05;;;;;;;;;;;7.90;99.90;;;;;;4992343;28;19926;-77
2023/01/02 10:36:33;;;;;;;;;;;7.90;99.90;;;;;;4973769;28;20021;-77
2023/01/02 10:39:01;;;;;;;;;;;7.90;99.90;;;;;;4970201;28;19930;-78
2023/01/02 10:41:30;;;;;;;;;;;7.90;99.90;;;;;;4991474;28;19968;-78
2023/01/02 10:43:59;;;;;;;;;;;7.90;99.90;;;;;;4971626;28;20304;-78
2023/01/02 10:46:28;;;;;;;;;;;7.90;99.90;;;;;;4989972;28;19926;-77
2023/01/02 10:48:55;;;;;;;;;;;7.90;99.90;;;;;;4972326;28;19972;-78
2023/01/02 10:51:22;;;;;;;;;;;8.00;99.90;;;;;;4977125;28;19926;-78
2023/01/02 10:53:59;;;;;;;;;;;8.00;99.90;;;;;;4989386;28;20376;-78
2023/01/02 10:56:26;;;;;;;;;;;7.90;99.90;;;;;;4995168;28;19926;-78
2023/01/02 10:58:54;;;;;;;;;;;8.00;99.90;;;;;;4984459;28;19929;-78
2023/01/02 11:01:22;;;;;;;;;;;8.00;99.90;;;;;;4989872;28;20388;-77
2023/01/02 11:04:08;;;;;;;;;;;8.00;99.90;;;;;;4988109;28;20312;-78
2023/01/02 11:06:39;;;;;;;;;;;8.00;99.90;;;;;;4986518;28;19926;-78
2023/01/02 11:09:17;;;;;;;;;;;8.00;99.90;;;;;;4972344;28;19933;-78
2023/01/02 11:11:48;;;;;;;;;;;8.00;99.90;;;;;;4989751;28;20000;-78
2023/01/02 11:14:16;;;;;;;;;;;8.00;99.90;;;;;;4970469;28;19926;-78
2023/01/02 11:16:43;;;;;;;;;;;8.00;99.90;;;;;;4990262;28;19926;-77
2023/01/02 11:19:17;;;;;;;;;;;8.00;99.90;;;;;;4975079;28;19939;-77
2023/01/02 11:21:45;;;;;;;;;;;8.00;99.90;;;;;;4988646;28;19932;-78
2023/01/02 11:24:15;;;;;;;;;;;8.10;99.90;;;;;;4985356;28;19957;-77
2023/01/02 11:26:43;;;;;;;;;;;8.10;99.90;;;;;;4976573;28;20430;-77
2023/01/02 11:29:13;;;;;;;;;;;8.10;99.90;;;;;;4978873;28;19930;-77
2023/01/02 11:31:44;;;;;;;;;;;8.10;99.90;;;;;;4979538;28;19975;-78
2023/01/02 11:34:18;;;;;;;;;;;8.20;99.90;;;;;;4977729;28;19925;-78
2023/01/02 11:36:46;;;;;;;;;;;8.10;99.90;;;;;;4974548;28;19925;-77
2023/01/02 11:39:23;;;;;;;;;;;8.20;99.90;;;;;;4990778;28;19925;-78
2023/01/02 11:44:43;;;;;;;;;;;8.30;99.90;;;;;;4993119;28;20016;-77
2023/01/02 11:47:13;;;;;;;;;;;8.30;99.90;;;;;;4995243;28;19933;-78
2023/01/02 11:49:41;;;;;;;;;;;8.40;99.90;;;;;;4975565;28;19992;-77
2023/01/02 11:52:11;;;;;;;;;;;8.40;99.90;;;;;;4977330;28;19933;-77
2023/01/02 11:54:42;;;;;;;;;;;8.50;99.90;;;;;;4991853;28;19926;-77
2023/01/02 11:57:11;;;;;;;;;;;8.50;99.90;;;;;;4992288;28;19926;-78
2023/01/02 11:59:40;;;;;;;;;;;8.50;99.90;;;;;;4989556;28;19926;-77
2023/01/02 12:02:15;;;;;;;;;;;8.50;99.90;;;;;;4988941;28;19925;-78
2023/01/02 12:04:42;;;;;;;;;;;8.50;99.90;;;;;;4976289;28;20786;-78
2023/01/02 12:07:17;;;;;;;;;;;8.50;99.90;;;;;;4988641;28;20370;-78
2023/01/02 12:09:50;;;;;;;;;;;8.50;99.90;;;;;;4983316;28;20388;-78
2023/01/02 12:12:26;;;;;;;;;;;8.50;99.90;;;;;;4993419;28;19980;-78
2023/01/02 12:15:03;;;;;;;;;;;8.50;99.90;;;;;;4994620;28;20273;-78
2023/01/02 12:17:34;;;;;;;;;;;8.50;99.90;;;;;;4976532;28;19926;-78
2023/01/02 12:20:16;;;;;;;;;;;8.50;99.90;;;;;;4969902;28;19926;-78
2023/01/02 12:22:58;;;;;;;;;;;8.60;99.90;;;;;;4982881;28;19949;-78
2023/01/02 12:25:45;;;;;;;;;;;8.70;99.90;;;;;;4973979;28;19929;-78
2023/01/02 12:28:20;;;;;;;;;;;8.80;99.90;;;;;;4975313;28;20028;-77
2023/01/02 12:30:48;;;;;;;;;;;8.90;99.90;;;;;;4988778;28;20301;-78
2023/01/02 12:33:28;;;;;;;;;;;9.00;99.90;;;;;;4991023;28;19934;-77
2023/01/02 12:36:05;;;;;;;;;;;9.10;99.90;;;;;;4982005;28;19934;-78
2023/01/02 12:38:37;;;;;;;;;;;9.20;99.90;;;;;;4975746;28;19926;-78
2023/01/02 12:41:10;;;;;;;;;;;9.20;99.90;;;;;;4993369;28;20319;-78
2023/01/02 12:43:55;;;;;;;;;;;9.20;99.90;;;;;;4995596;28;20004;-78
2023/01/02 12:46:28;;;;;;;;;;;9.20;99.90;;;;;;4969770;28;19926;-78
2023/01/02 12:49:04;;;;;;;;;;;9.30;99.90;;;;;;4990640;28;20396;-78
2023/01/02 12:51:34;;;;;;;;;;;9.30;99.90;;;;;;4992535;28;19926;-78
2023/01/02 12:54:08;;;;;;;;;;;9.30;99.90;;;;;;4991649;28;19972;-78
2023/01/02 12:56:40;;;;;;;;;;;9.40;99.90;;;;;;4996443;28;19948;-78
2023/01/02 12:59:15;;;;;;;;;;;9.40;99.90;;;;;;5000234;28;20004;-78
2023/01/02 13:01:46;;;;;;;;;;;9.40;99.90;;;;;;4978449;28;19930;-78
2023/01/02 13:04:17;;;;;;;;;;;9.60;99.90;;;;;;4989015;28;19925;-78
2023/01/02 13:06:46;;;;;;;;;;;9.60;99.90;;;;;;4993266;28;19941;-78
2023/01/02 13:09:15;;;;;;;;;;;9.60;99.90;;;;;;4991100;28;19933;-77
2023/01/02 13:11:45;;;;;;;;;;;9.70;99.90;;;;;;4988393;28;20402;-78
2023/01/02 13:14:17;;;;;;;;;;;9.70;99.90;;;;;;4992607;28;19937;-78
2023/01/02 13:16:47;;;;;;;;;;;9.80;99.90;;;;;;4992721;28;20273;-78
2023/01/02 13:19:19;;;;;;;;;;;9.80;99.90;;;;;;4999278;28;19925;-78
2023/01/02 13:21:50;;;;;;;;;;;9.80;99.90;;;;;;4994571;28;20017;-78
2023/01/02 13:24:21;;;;;;;;;;;9.80;99.90;;;;;;4992605;28;20396;-78
2023/01/02 13:26:48;;;;;;;;;;;9.90;99.90;;;;;;4997120;28;19958;-78
2023/01/02 13:29:20;;;;;;;;;;;9.80;99.90;;;;;;4979280;28;19933;-77
2023/01/02 13:31:48;;;;;;;;;;;9.90;99.90;;;;;;4993452;28;19940;-78
2023/01/02 13:34:19;;;;;;;;;;;9.90;99.90;;;;;;5000154;28;19933;-78
2023/01/02 13:36:48;;;;;;;;;;;9.90;99.90;;;;;;4994637;28;19933;-78
2023/01/02 13:39:17;;;;;;;;;;;10.00;99.90;;;;;;4972291;28;19926;-78
2023/01/02 13:44:31;;;;;;;;;;;10.20;99.90;;;;;;4994098;28;19922;-77
2023/01/02 13:47:06;;;;;;;;;;;10.20;99.90;;;;;;4994161;28;19931;-78
2023/01/02 13:49:35;;;;;;;;;;;10.30;99.90;;;;;;4992484;28;19926;-78
2023/01/02 13:52:02;;;;;;;;;;;10.30;99.90;;;;;;4993005;28;19929;-78
2023/01/02 13:54:35;;;;;;;;;;;10.30;99.90;;;;;;4994901;28;20355;-76
2023/01/02 13:57:15;;;;;;;;;;;10.40;99.90;;;;;;4988999;28;19933;-78
2023/01/02 13:59:49;;;;;;;;;;;10.50;99.90;;;;;;4990701;28;19980;-78
2023/01/02 14:02:19;;;;;;;;;;;10.50;99.90;;;;;;4997117;28;19981;-78
2023/01/02 16:54:08;;;;;;;;;;;10.30;99.90;;;;;;6146521;23;20739;31
2023/01/02 19:30:25;;;;;;;;;;;10.30;99.90;;;;;;4995344;28;19940;-81
2023/01/02 22:31:04;;;;;;;;;;;9.80;99.90;;;;;;5110303;23;19930;-77
2023/01/02 22:33:36;;;;;;;;;;;9.80;99.90;;;;;;5016156;28;19933;-77
2023/01/02 22:36:25;;;;;;;;;;;9.80;99.90;;;;;;5006800;28;20674;-77
2023/01/02 22:38:57;;;;;;;;;;;9.80;99.90;;;;;;4976058;28;20057;-77
2023/01/02 22:41:28;;;;;;;;;;;9.80;99.90;;;;;;5000165;28;19964;-77
2023/01/02 22:44:07;;;;;;;;;;;9.80;99.90;;;;;;4997933;28;19926;-77
2023/01/02 22:47:11;;;;;;;;;;;9.80;99.90;;;;;;4993332;28;19976;-76
2023/01/02 22:49:42;;;;;;;;;;;9.80;99.90;;;;;;4986175;28;20408;-77
2023/01/02 22:52:14;;;;;;;;;;;9.70;99.90;;;;;;4996930;28;19936;-76
2023/01/02 22:54:42;;;;;;;;;;;9.70;99.90;;;;;;4993584;28;19933;-77
2023/01/02 22:57:12;;;;;;;;;;;9.70;99.90;;;;;;4997685;28;19996;-77
2023/01/02 22:59:44;;;;;;;;;;;9.70;99.90;;;;;;4998233;28;19934;-76
2023/01/02 23:02:19;;;;;;;;;;;9.70;99.90;;;;;;4995378;28;19926;-76
2023/01/02 23:04:52;;;;;;;;;;;9.70;99.90;;;;;;5000374;28;19933;-76
2023/01/02 23:07:24;;;;;;;;;;;9.70;99.90;;;;;;4974448;28;20384;-76
2023/01/02 23:09:59;;;;;;;;;;;9.60;99.90;;;;;;4993214;28;20123;-76
2023/01/02 23:12:35;;;;;;;;;;;9.60;99.90;;;;;;4993245;28;19940;-76
2023/01/02 23:15:10;;;;;;;;;;;9.60;99.90;;;;;;4994701;28;20384;-77
2023/01/02 23:20:40;;;;;;;;;;;9.60;99.90;;;;;;4998294;28;19933;-76
2023/01/02 23:23:26;;;;;;;;;;;9.60;99.90;;;;;;4990975;28;19999;-77